createdAt,value
2018-09-26T00:03:31.880Z,35.5
2018-09-26T00:13:31.096Z,35.4
2018-09-26T00:23:30.316Z,35.4
2018-09-26T00:33:29.550Z,35.4
2018-09-26T00:43:28.765Z,35.4
2018-09-26T00:53:27.989Z,35.4
2018-09-26T01:03:27.212Z,35.4
2018-09-26T01:13:26.435Z,35.3
2018-09-26T01:23:25.668Z,35.3
2018-09-26T01:33:24.895Z,35.3
2018-09-26T01:43:24.106Z,35.3
2018-09-26T01:53:23.334Z,35.3
2018-09-26T02:03:22.559Z,35.2
2018-09-26T02:13:21.834Z,35.2
2018-09-26T02:23:21.005Z,35.2
2018-09-26T02:33:20.223Z,35.1
2018-09-26T02:43:19.452Z,32.3
2018-09-26T02:53:18.682Z,29.3
2018-09-26T03:03:17.894Z,29.4
2018-09-26T03:13:17.115Z,28.7
2018-09-26T03:23:16.351Z,28.4
2018-09-26T03:33:15.568Z,28.3
2018-09-26T03:43:14.792Z,28.3
2018-09-26T03:53:14.011Z,26.9
2018-09-26T04:03:13.241Z,26.5
2018-09-26T04:13:12.564Z,26.3
2018-09-26T04:23:11.693Z,26.2
2018-09-26T04:33:11.137Z,26.3
2018-09-26T04:43:10.143Z,26.3
2018-09-26T04:53:09.356Z,26.3
2018-09-26T05:03:08.581Z,26.4
2018-09-26T05:13:07.810Z,26.4
2018-09-26T05:23:07.117Z,26.5
2018-09-26T05:33:06.251Z,26.6
2018-09-26T05:43:05.478Z,26.7
2018-09-26T05:53:04.706Z,26.9
2018-09-26T06:03:03.924Z,27.3
2018-09-26T06:13:03.260Z,27.9
2018-09-26T06:23:02.368Z,28.7
2018-09-26T06:33:01.592Z,29.4
2018-09-26T06:43:00.808Z,30.3
2018-09-26T06:53:00.038Z,31.1
2018-09-26T07:02:59.254Z,32
2018-09-26T07:12:58.481Z,32.9
2018-09-26T07:22:57.702Z,33.8
2018-09-26T07:32:56.919Z,34.6
2018-09-26T07:42:56.147Z,35.4
2018-09-26T07:52:55.408Z,36.3
2018-09-26T08:02:54.590Z,36.9
2018-09-26T08:12:53.811Z,37.6
2018-09-26T08:22:53.034Z,38.3
2018-09-26T08:32:52.255Z,39
2018-09-26T08:42:51.476Z,39.8
2018-09-26T08:52:50.694Z,40.5
2018-09-26T09:02:49.916Z,41.2
2018-09-26T09:12:49.147Z,41.9
2018-09-26T09:22:48.358Z,42.6
2018-09-26T09:32:47.580Z,43.3
2018-09-26T09:42:46.801Z,43.9
2018-09-26T09:52:46.030Z,44.2
2018-09-26T10:02:45.287Z,44.5
2018-09-26T10:12:44.465Z,44.9
2018-09-26T10:22:43.688Z,45.3
2018-09-26T10:32:42.913Z,45.9
2018-09-26T10:42:42.134Z,46.6
2018-09-26T10:52:41.356Z,47.2
2018-09-26T11:02:40.578Z,47.6
2018-09-26T11:12:39.847Z,48.1
2018-09-26T11:22:39.014Z,48.6
2018-09-26T11:32:38.236Z,49
2018-09-26T11:42:37.457Z,49.3
2018-09-26T11:52:36.678Z,49.5
2018-09-26T12:02:35.970Z,49.8
2018-09-26T12:12:35.125Z,50.1
2018-09-26T12:22:34.402Z,50.4
2018-09-26T12:32:33.565Z,50.6
2018-09-26T12:42:32.824Z,51.1
2018-09-26T12:52:32.005Z,51.4
2018-09-26T13:02:31.291Z,51.7
2018-09-26T13:12:30.445Z,51.9
2018-09-26T13:22:29.672Z,51.9
2018-09-26T13:32:28.887Z,52.1
2018-09-26T13:42:28.307Z,52.1
2018-09-26T13:52:27.326Z,52.2
2018-09-26T14:02:26.600Z,52.3
2018-09-26T14:12:25.800Z,52.4
2018-09-26T14:22:25.170Z,52.5
2018-09-26T14:32:24.345Z,52.5
2018-09-26T14:42:23.427Z,52.5
2018-09-26T14:52:22.636Z,52.5
2018-09-26T15:02:22.025Z,52.4
2018-09-26T15:12:21.105Z,52.4
2018-09-26T15:22:20.308Z,52.4
2018-09-26T15:32:19.623Z,52.3
2018-09-26T15:42:18.862Z,52.3
2018-09-26T15:52:18.013Z,52.3
2018-09-26T16:02:17.240Z,52.2
2018-09-26T16:12:16.455Z,52.2
2018-09-26T16:22:15.660Z,52.1
2018-09-26T16:32:14.871Z,52
2018-09-26T16:42:14.069Z,52
2018-09-26T16:52:13.313Z,51.9
2018-09-26T17:02:12.555Z,51.3
2018-09-26T17:12:11.728Z,51
2018-09-26T17:22:10.983Z,50.4
2018-09-26T17:32:10.184Z,49.9
2018-09-26T17:42:09.441Z,49.5
2018-09-26T17:52:08.670Z,48.6
2018-09-26T18:02:07.831Z,47.9
2018-09-26T18:12:07.049Z,47.7
2018-09-26T18:22:06.276Z,47.6
2018-09-26T18:32:05.492Z,47.1
2018-09-26T18:42:04.714Z,47
2018-09-26T18:52:03.934Z,45.6
2018-09-26T19:02:03.156Z,45.4
2018-09-26T19:12:02.413Z,45.2
2018-09-26T19:22:01.600Z,45.1
2018-09-26T19:32:00.821Z,45
2018-09-26T19:42:00.036Z,44.9
2018-09-26T19:51:59.319Z,44.7
2018-09-26T20:01:58.553Z,44
2018-09-26T20:11:57.707Z,43.9
2018-09-26T20:21:56.998Z,43.8
2018-09-26T20:31:56.140Z,43.8
2018-09-26T20:41:55.369Z,43.7
2018-09-26T20:51:54.604Z,43.6
2018-09-26T21:01:53.806Z,43.6
2018-09-26T21:11:53.038Z,43.5
2018-09-26T21:21:52.245Z,43.4
2018-09-26T21:31:51.467Z,43.4
2018-09-26T21:41:50.691Z,43.3
2018-09-26T21:51:49.910Z,43.2
2018-09-26T22:01:49.129Z,43.1
2018-09-26T22:11:48.336Z,43.1
2018-09-26T22:21:47.614Z,43
2018-09-26T22:31:46.775Z,42.9
2018-09-26T22:41:46.004Z,42.9
2018-09-26T22:51:45.220Z,42.9
2018-09-26T23:01:44.445Z,42.8
2018-09-26T23:11:43.661Z,42.8
2018-09-26T23:21:42.873Z,42.7
2018-09-26T23:31:42.090Z,42.6
2018-09-26T23:41:41.309Z,42.6
2018-09-26T23:51:40.529Z,42.5
